sensor_id;sensor_type;location;lat;lon;timestamp;temperature;humidity
18163;DHT22;9206;50.994;4.538;2022-12-07T00:00:03;4.70;99.90
18163;DHT22;9206;50.994;4.538;2022-12-07T00:02:51;4.60;99.90
18163;DHT22;9206;50.994;4.538;2022-12-07T00:05:44;4.50;99.90
18163;DHT22;9206;50.994;4.538;2022-12-07T00:08:39;4.40;99.90
18163;DHT22;9206;50.994;4.538;2022-12-07T00:11:33;4.30;99.90
18163;DHT22;9206;50.994;4.538;2022-12-07T00:14:26;4.30;99.90
18163;DHT22;9206;50.994;4.538;2022-12-07T00:17:16;4.30;99.90
18163;DHT22;9206;50.994;4.538;2022-12-07T00:20:05;4.10;99.90
18163;DHT22;9206;50.994;4.538;2022-12-07T00:22:58;4.10;99.90
18163;DHT22;9206;50.994;4.538;2022-12-07T00:25:53;4.00;99.90
18163;DHT22;9206;50.994;4.538;2022-12-07T00:28:45;4.00;99.90
18163;DHT22;9206;50.994;4.538;2022-12-07T00:31:34;3.90;99.90
18163;DHT22;9206;50.994;4.538;2022-12-07T00:34:27;3.80;99.90
18163;DHT22;9206;50.994;4.538;2022-12-07T00:37:16;3.80;99.90
18163;DHT22;9206;50.994;4.538;2022-12-07T00:40:05;3.70;99.90
18163;DHT22;9206;50.994;4.538;2022-12-07T00:42:53;3.60;99.90
18163;DHT22;9206;50.994;4.538;2022-12-07T00:45:46;3.60;99.90
18163;DHT22;9206;50.994;4.538;2022-12-07T00:48:40;3.50;99.90
18163;DHT22;9206;50.994;4.538;2022-12-07T00:51:33;3.50;99.90
18163;DHT22;9206;50.994;4.538;2022-12-07T00:54:22;3.50;99.90
18163;DHT22;9206;50.994;4.538;2022-12-07T00:57:13;3.40;99.90
18163;DHT22;9206;50.994;4.538;2022-12-07T01:00:08;3.30;99.90
18163;DHT22;9206;50.994;4.538;2022-12-07T01:03:02;3.30;99.90
18163;DHT22;9206;50.994;4.538;2022-12-07T01:05:51;3.30;99.90
18163;DHT22;9206;50.994;4.538;2022-12-07T01:08:40;3.30;99.90
18163;DHT22;9206;50.994;4.538;2022-12-07T01:11:29;3.30;99.90
18163;DHT22;9206;50.994;4.538;2022-12-07T01:14:19;3.30;99.90
18163;DHT22;9206;50.994;4.538;2022-12-07T01:17:14;3.20;99.90
18163;DHT22;9206;50.994;4.538;2022-12-07T01:20:05;3.30;99.90
18163;DHT22;9206;50.994;4.538;2022-12-07T01:22:54;3.40;99.90
18163;DHT22;9206;50.994;4.538;2022-12-07T01:25:54;3.40;99.90
18163;DHT22;9206;50.994;4.538;2022-12-07T01:28:47;3.50;99.90
18163;DHT22;9206;50.994;4.538;2022-12-07T01:31:40;3.50;99.90
18163;DHT22;9206;50.994;4.538;2022-12-07T01:34:35;3.50;99.90
18163;DHT22;9206;50.994;4.538;2022-12-07T01:37:25;3.60;99.90
18163;DHT22;9206;50.994;4.538;2022-12-07T01:40:18;3.70;99.90
18163;DHT22;9206;50.994;4.538;2022-12-07T01:43:17;3.70;99.90
18163;DHT22;9206;50.994;4.538;2022-12-07T01:46:07;3.80;99.90
18163;DHT22;9206;50.994;4.538;2022-12-07T01:48:54;3.90;99.90
18163;DHT22;9206;50.994;4.538;2022-12-07T01:51:50;3.90;99.90
18163;DHT22;9206;50.994;4.538;2022-12-07T01:54:39;4.00;99.90
18163;DHT22;9206;50.994;4.538;2022-12-07T01:57:34;4.10;99.90
18163;DHT22;9206;50.994;4.538;2022-12-07T02:00:29;4.10;99.90
18163;DHT22;9206;50.994;4.538;2022-12-07T02:03:19;4.10;99.90
18163;DHT22;9206;50.994;4.538;2022-12-07T02:06:15;4.10;99.90
18163;DHT22;9206;50.994;4.538;2022-12-07T02:09:07;4.10;99.90
18163;DHT22;9206;50.994;4.538;2022-12-07T02:12:01;4.00;99.90
18163;DHT22;9206;50.994;4.538;2022-12-07T02:14:54;4.00;99.90
18163;DHT22;9206;50.994;4.538;2022-12-07T02:17:50;3.90;99.90
18163;DHT22;9206;50.994;4.538;2022-12-07T02:20:42;3.90;99.90
18163;DHT22;9206;50.994;4.538;2022-12-07T02:24:03;4.00;99.90
18163;DHT22;9206;50.994;4.538;2022-12-07T02:27:11;4.00;99.90
18163;DHT22;9206;50.994;4.538;2022-12-07T02:30:12;4.00;99.90
18163;DHT22;9206;50.994;4.538;2022-12-07T02:33:04;4.00;99.90
18163;DHT22;9206;50.994;4.538;2022-12-07T02:35:59;4.10;99.90
18163;DHT22;9206;50.994;4.538;2022-12-07T02:38:57;4.10;99.90
18163;DHT22;9206;50.994;4.538;2022-12-07T02:41:54;4.00;99.90
18163;DHT22;9206;50.994;4.538;2022-12-07T02:44:48;3.90;99.90
18163;DHT22;9206;50.994;4.538;2022-12-07T02:47:39;3.70;99.90
18163;DHT22;9206;50.994;4.538;2022-12-07T02:50:28;3.60;99.90
18163;DHT22;9206;50.994;4.538;2022-12-07T02:53:41;3.50;99.90
18163;DHT22;9206;50.994;4.538;2022-12-07T02:56:39;3.50;99.90
18163;DHT22;9206;50.994;4.538;2022-12-07T02:59:36;3.50;99.90
18163;DHT22;9206;50.994;4.538;2022-12-07T03:02:33;3.50;99.90
18163;DHT22;9206;50.994;4.538;2022-12-07T03:05:37;3.50;99.90
18163;DHT22;9206;50.994;4.538;2022-12-07T03:08:33;3.50;99.90
18163;DHT22;9206;50.994;4.538;2022-12-07T03:11:29;3.60;99.90
18163;DHT22;9206;50.994;4.538;2022-12-07T03:14:21;3.60;99.90
18163;DHT22;9206;50.994;4.538;2022-12-07T03:17:14;3.70;99.90
18163;DHT22;9206;50.994;4.538;2022-12-07T03:20:04;3.80;99.90
18163;DHT22;9206;50.994;4.538;2022-12-07T03:23:00;3.80;99.90
18163;DHT22;9206;50.994;4.538;2022-12-07T03:25:57;3.90;99.90
18163;DHT22;9206;50.994;4.538;2022-12-07T03:28:54;3.90;99.90
18163;DHT22;9206;50.994;4.538;2022-12-07T03:31:46;3.90;99.90
18163;DHT22;9206;50.994;4.538;2022-12-07T03:34:44;3.90;99.90
18163;DHT22;9206;50.994;4.538;2022-12-07T03:37:37;3.90;99.90
18163;DHT22;9206;50.994;4.538;2022-12-07T03:40:32;3.90;99.90
18163;DHT22;9206;50.994;4.538;2022-12-07T03:43:23;3.90;99.90
18163;DHT22;9206;50.994;4.538;2022-12-07T03:46:19;3.80;99.90
18163;DHT22;9206;50.994;4.538;2022-12-07T03:49:18;3.80;99.90
18163;DHT22;9206;50.994;4.538;2022-12-07T03:52:18;3.70;99.90
18163;DHT22;9206;50.994;4.538;2022-12-07T03:55:14;3.80;99.90
18163;DHT22;9206;50.994;4.538;2022-12-07T03:58:07;3.70;99.90
18163;DHT22;9206;50.994;4.538;2022-12-07T04:01:01;3.70;99.90
18163;DHT22;9206;50.994;4.538;2022-12-07T04:03:48;3.60;99.90
18163;DHT22;9206;50.994;4.538;2022-12-07T04:06:36;3.50;99.90
18163;DHT22;9206;50.994;4.538;2022-12-07T04:09:29;3.50;99.90
18163;DHT22;9206;50.994;4.538;2022-12-07T04:12:16;3.40;99.90
18163;DHT22;9206;50.994;4.538;2022-12-07T04:15:18;3.30;99.90
18163;DHT22;9206;50.994;4.538;2022-12-07T04:18:11;3.20;99.90
18163;DHT22;9206;50.994;4.538;2022-12-07T04:21:00;3.10;99.90
18163;DHT22;9206;50.994;4.538;2022-12-07T04:23:51;3.10;99.90
18163;DHT22;9206;50.994;4.538;2022-12-07T04:26:41;2.90;99.90
18163;DHT22;9206;50.994;4.538;2022-12-07T04:29:39;2.90;99.90
18163;DHT22;9206;50.994;4.538;2022-12-07T04:32:33;2.80;99.90
18163;DHT22;9206;50.994;4.538;2022-12-07T04:35:26;2.80;99.90
18163;DHT22;9206;50.994;4.538;2022-12-07T04:38:17;2.80;99.90
18163;DHT22;9206;50.994;4.538;2022-12-07T04:41:08;2.90;99.90
18163;DHT22;9206;50.994;4.538;2022-12-07T04:43:56;3.00;99.90
18163;DHT22;9206;50.994;4.538;2022-12-07T04:46:47;3.00;99.90
18163;DHT22;9206;50.994;4.538;2022-12-07T04:49:36;3.00;99.90
18163;DHT22;9206;50.994;4.538;2022-12-07T04:52:24;3.00;99.90
18163;DHT22;9206;50.994;4.538;2022-12-07T04:55:11;2.90;99.90
18163;DHT22;9206;50.994;4.538;2022-12-07T04:57:59;2.80;99.90
18163;DHT22;9206;50.994;4.538;2022-12-07T05:00:47;2.80;99.90
18163;DHT22;9206;50.994;4.538;2022-12-07T05:03:35;2.80;99.90
18163;DHT22;9206;50.994;4.538;2022-12-07T05:06:26;2.80;99.90
18163;DHT22;9206;50.994;4.538;2022-12-07T05:09:15;2.80;99.90
18163;DHT22;9206;50.994;4.538;2022-12-07T05:12:06;2.90;99.90
18163;DHT22;9206;50.994;4.538;2022-12-07T05:14:56;3.00;99.90
18163;DHT22;9206;50.994;4.538;2022-12-07T05:17:49;3.10;99.90
18163;DHT22;9206;50.994;4.538;2022-12-07T05:20:40;3.20;99.90
18163;DHT22;9206;50.994;4.538;2022-12-07T05:23:29;3.30;99.90
18163;DHT22;9206;50.994;4.538;2022-12-07T05:26:17;3.30;99.90
18163;DHT22;9206;50.994;4.538;2022-12-07T05:29:05;3.40;99.90
18163;DHT22;9206;50.994;4.538;2022-12-07T05:31:53;3.40;99.90
18163;DHT22;9206;50.994;4.538;2022-12-07T05:34:46;3.40;99.90
18163;DHT22;9206;50.994;4.538;2022-12-07T05:37:34;3.40;99.90
18163;DHT22;9206;50.994;4.538;2022-12-07T05:40:28;3.50;99.90
18163;DHT22;9206;50.994;4.538;2022-12-07T05:43:16;3.50;99.90
18163;DHT22;9206;50.994;4.538;2022-12-07T05:46:05;3.50;99.90
18163;DHT22;9206;50.994;4.538;2022-12-07T05:48:52;3.50;99.90
18163;DHT22;9206;50.994;4.538;2022-12-07T05:51:43;3.50;99.90
18163;DHT22;9206;50.994;4.538;2022-12-07T05:54:58;3.40;99.90
18163;DHT22;9206;50.994;4.538;2022-12-07T05:57:47;3.40;99.90
18163;DHT22;9206;50.994;4.538;2022-12-07T06:00:54;3.50;99.90
18163;DHT22;9206;50.994;4.538;2022-12-07T06:03:44;3.50;99.90
18163;DHT22;9206;50.994;4.538;2022-12-07T06:06:37;3.60;99.90
18163;DHT22;9206;50.994;4.538;2022-12-07T06:09:26;3.60;99.90
18163;DHT22;9206;50.994;4.538;2022-12-07T06:12:15;3.60;99.90
18163;DHT22;9206;50.994;4.538;2022-12-07T06:15:28;3.60;99.90
18163;DHT22;9206;50.994;4.538;2022-12-07T06:18:16;3.60;99.90
18163;DHT22;9206;50.994;4.538;2022-12-07T06:21:03;3.60;99.90
18163;DHT22;9206;50.994;4.538;2022-12-07T06:23:52;3.70;99.90
18163;DHT22;9206;50.994;4.538;2022-12-07T06:26:42;3.70;99.90
18163;DHT22;9206;50.994;4.538;2022-12-07T06:29:32;3.70;99.90
18163;DHT22;9206;50.994;4.538;2022-12-07T06:32:24;3.60;99.90
18163;DHT22;9206;50.994;4.538;2022-12-07T06:35:11;3.50;99.90
18163;DHT22;9206;50.994;4.538;2022-12-07T06:38:04;3.50;99.90
18163;DHT22;9206;50.994;4.538;2022-12-07T06:40:52;3.40;99.90
18163;DHT22;9206;50.994;4.538;2022-12-07T06:43:39;3.40;99.90
18163;DHT22;9206;50.994;4.538;2022-12-07T06:46:27;3.40;99.90
18163;DHT22;9206;50.994;4.538;2022-12-07T06:49:16;3.50;99.90
18163;DHT22;9206;50.994;4.538;2022-12-07T06:52:04;3.50;99.90
18163;DHT22;9206;50.994;4.538;2022-12-07T06:54:51;3.50;99.90
18163;DHT22;9206;50.994;4.538;2022-12-07T06:57:39;3.60;99.90
18163;DHT22;9206;50.994;4.538;2022-12-07T07:00:26;3.60;99.90
18163;DHT22;9206;50.994;4.538;2022-12-07T07:03:13;3.70;99.90
18163;DHT22;9206;50.994;4.538;2022-12-07T07:06:02;3.70;99.90
18163;DHT22;9206;50.994;4.538;2022-12-07T07:08:49;3.70;99.90
18163;DHT22;9206;50.994;4.538;2022-12-07T07:11:37;3.80;99.90
18163;DHT22;9206;50.994;4.538;2022-12-07T07:14:24;3.80;99.90
18163;DHT22;9206;50.994;4.538;2022-12-07T07:17:11;3.80;99.90
18163;DHT22;9206;50.994;4.538;2022-12-07T07:19:58;3.90;99.90
18163;DHT22;9206;50.994;4.538;2022-12-07T07:22:47;3.80;99.90
18163;DHT22;9206;50.994;4.538;2022-12-07T07:25:34;3.80;99.90
18163;DHT22;9206;50.994;4.538;2022-12-07T07:28:22;3.70;99.90
18163;DHT22;9206;50.994;4.538;2022-12-07T07:31:09;3.70;99.90
18163;DHT22;9206;50.994;4.538;2022-12-07T07:33:56;3.50;99.90
18163;DHT22;9206;50.994;4.538;2022-12-07T07:36:44;3.40;99.90
18163;DHT22;9206;50.994;4.538;2022-12-07T07:39:32;3.40;99.90
18163;DHT22;9206;50.994;4.538;2022-12-07T07:42:19;3.30;99.90
18163;DHT22;9206;50.994;4.538;2022-12-07T07:45:08;3.20;99.90
18163;DHT22;9206;50.994;4.538;2022-12-07T07:47:55;3.10;99.90
18163;DHT22;9206;50.994;4.538;2022-12-07T07:50:42;3.20;99.90
18163;DHT22;9206;50.994;4.538;2022-12-07T07:53:30;3.20;99.90
18163;DHT22;9206;50.994;4.538;2022-12-07T07:56:19;3.20;99.90
18163;DHT22;9206;50.994;4.538;2022-12-07T07:59:06;3.30;99.90
18163;DHT22;9206;50.994;4.538;2022-12-07T08:01:54;3.30;99.90
18163;DHT22;9206;50.994;4.538;2022-12-07T08:04:41;3.30;99.90
18163;DHT22;9206;50.994;4.538;2022-12-07T08:07:30;3.30;99.90
18163;DHT22;9206;50.994;4.538;2022-12-07T08:10:17;3.30;99.90
18163;DHT22;9206;50.994;4.538;2022-12-07T08:13:06;3.30;99.90
18163;DHT22;9206;50.994;4.538;2022-12-07T08:16:03;3.30;99.90
18163;DHT22;9206;50.994;4.538;2022-12-07T08:18:51;3.40;99.90
18163;DHT22;9206;50.994;4.538;2022-12-07T08:21:38;3.50;99.90
18163;DHT22;9206;50.994;4.538;2022-12-07T08:24:25;3.50;99.90
18163;DHT22;9206;50.994;4.538;2022-12-07T08:27:13;3.60;99.90
18163;DHT22;9206;50.994;4.538;2022-12-07T08:30:01;3.60;99.90
18163;DHT22;9206;50.994;4.538;2022-12-07T08:32:49;3.70;99.90
18163;DHT22;9206;50.994;4.538;2022-12-07T08:35:36;3.90;99.90
18163;DHT22;9206;50.994;4.538;2022-12-07T08:38:23;4.20;99.90
18163;DHT22;9206;50.994;4.538;2022-12-07T08:41:11;4.40;99.90
18163;DHT22;9206;50.994;4.538;2022-12-07T08:43:58;4.60;99.90
18163;DHT22;9206;50.994;4.538;2022-12-07T08:46:49;4.60;99.90
18163;DHT22;9206;50.994;4.538;2022-12-07T08:49:40;4.70;99.90
18163;DHT22;9206;50.994;4.538;2022-12-07T08:52:28;4.80;99.90
18163;DHT22;9206;50.994;4.538;2022-12-07T08:55:16;4.90;99.90
18163;DHT22;9206;50.994;4.538;2022-12-07T08:58:04;4.90;99.90
18163;DHT22;9206;50.994;4.538;2022-12-07T09:00:51;5.00;99.90
18163;DHT22;9206;50.994;4.538;2022-12-07T09:03:39;5.00;99.90
18163;DHT22;9206;50.994;4.538;2022-12-07T09:06:27;5.00;99.90
18163;DHT22;9206;50.994;4.538;2022-12-07T09:09:15;5.10;99.90
18163;DHT22;9206;50.994;4.538;2022-12-07T09:12:03;5.20;99.90
18163;DHT22;9206;50.994;4.538;2022-12-07T09:14:51;5.40;99.90
18163;DHT22;9206;50.994;4.538;2022-12-07T09:17:38;5.60;99.90
18163;DHT22;9206;50.994;4.538;2022-12-07T09:20:28;5.90;99.90
18163;DHT22;9206;50.994;4.538;2022-12-07T09:23:15;6.40;99.90
18163;DHT22;9206;50.994;4.538;2022-12-07T09:26:04;7.10;99.90
18163;DHT22;9206;50.994;4.538;2022-12-07T09:28:51;7.10;99.90
18163;DHT22;9206;50.994;4.538;2022-12-07T09:31:38;6.80;99.90
18163;DHT22;9206;50.994;4.538;2022-12-07T09:34:25;6.50;99.90
18163;DHT22;9206;50.994;4.538;2022-12-07T09:37:14;6.30;99.90
18163;DHT22;9206;50.994;4.538;2022-12-07T09:40:03;6.10;99.90
18163;DHT22;9206;50.994;4.538;2022-12-07T09:42:52;6.10;99.90
18163;DHT22;9206;50.994;4.538;2022-12-07T09:45:41;6.00;99.90
18163;DHT22;9206;50.994;4.538;2022-12-07T09:48:30;6.20;99.90
18163;DHT22;9206;50.994;4.538;2022-12-07T09:51:20;6.30;99.90
18163;DHT22;9206;50.994;4.538;2022-12-07T09:54:12;6.50;99.90
18163;DHT22;9206;50.994;4.538;2022-12-07T09:57:00;6.70;99.90
18163;DHT22;9206;50.994;4.538;2022-12-07T09:59:47;7.10;99.90
18163;DHT22;9206;50.994;4.538;2022-12-07T10:02:38;8.80;99.90
18163;DHT22;9206;50.994;4.538;2022-12-07T10:05:32;9.70;99.90
18163;DHT22;9206;50.994;4.538;2022-12-07T10:08:22;10.40;99.90
18163;DHT22;9206;50.994;4.538;2022-12-07T10:11:11;10.30;99.90
18163;DHT22;9206;50.994;4.538;2022-12-07T10:14:11;10.10;99.90
18163;DHT22;9206;50.994;4.538;2022-12-07T10:16:59;9.80;99.90
18163;DHT22;9206;50.994;4.538;2022-12-07T10:19:46;9.90;99.90
18163;DHT22;9206;50.994;4.538;2022-12-07T10:22:33;11.70;99.90
18163;DHT22;9206;50.994;4.538;2022-12-07T10:25:22;14.50;99.90
18163;DHT22;9206;50.994;4.538;2022-12-07T10:28:15;16.00;99.90
18163;DHT22;9206;50.994;4.538;2022-12-07T10:31:15;17.50;99.90
18163;DHT22;9206;50.994;4.538;2022-12-07T10:34:03;16.90;99.90
18163;DHT22;9206;50.994;4.538;2022-12-07T10:36:51;15.40;99.90
18163;DHT22;9206;50.994;4.538;2022-12-07T10:39:42;13.80;99.90
18163;DHT22;9206;50.994;4.538;2022-12-07T10:42:31;12.60;99.90
18163;DHT22;9206;50.994;4.538;2022-12-07T10:45:20;11.40;99.90
18163;DHT22;9206;50.994;4.538;2022-12-07T10:48:13;10.40;99.90
18163;DHT22;9206;50.994;4.538;2022-12-07T10:51:09;9.60;99.90
18163;DHT22;9206;50.994;4.538;2022-12-07T10:54:07;9.10;99.90
18163;DHT22;9206;50.994;4.538;2022-12-07T10:57:16;8.90;99.90
18163;DHT22;9206;50.994;4.538;2022-12-07T11:00:15;8.70;99.90
18163;DHT22;9206;50.994;4.538;2022-12-07T11:03:23;8.60;99.90
18163;DHT22;9206;50.994;4.538;2022-12-07T11:06:20;8.60;99.90
18163;DHT22;9206;50.994;4.538;2022-12-07T11:09:41;8.90;99.90
18163;DHT22;9206;50.994;4.538;2022-12-07T11:12:51;9.20;99.90
18163;DHT22;9206;50.994;4.538;2022-12-07T11:19:05;10.30;99.90
18163;DHT22;9206;50.994;4.538;2022-12-07T11:21:56;10.50;99.90
18163;DHT22;9206;50.994;4.538;2022-12-07T11:24:50;10.90;99.90
18163;DHT22;9206;50.994;4.538;2022-12-07T11:27:44;13.70;99.90
18163;DHT22;9206;50.994;4.538;2022-12-07T11:30:38;17.10;99.90
18163;DHT22;9206;50.994;4.538;2022-12-07T11:33:31;19.00;99.90
18163;DHT22;9206;50.994;4.538;2022-12-07T11:36:33;19.30;99.90
18163;DHT22;9206;50.994;4.538;2022-12-07T11:39:26;20.60;99.90
18163;DHT22;9206;50.994;4.538;2022-12-07T11:42:21;19.70;99.90
18163;DHT22;9206;50.994;4.538;2022-12-07T11:45:14;18.00;99.90
18163;DHT22;9206;50.994;4.538;2022-12-07T11:48:04;16.70;99.90
18163;DHT22;9206;50.994;4.538;2022-12-07T11:50:57;16.50;99.90
18163;DHT22;9206;50.994;4.538;2022-12-07T11:53:48;15.50;99.90
18163;DHT22;9206;50.994;4.538;2022-12-07T11:56:36;14.30;99.90
18163;DHT22;9206;50.994;4.538;2022-12-07T11:59:28;13.20;99.90
18163;DHT22;9206;50.994;4.538;2022-12-07T12:02:22;12.20;99.90
18163;DHT22;9206;50.994;4.538;2022-12-07T12:05:16;11.50;99.90
18163;DHT22;9206;50.994;4.538;2022-12-07T12:08:17;11.10;99.90
18163;DHT22;9206;50.994;4.538;2022-12-07T12:11:21;10.80;99.90
18163;DHT22;9206;50.994;4.538;2022-12-07T12:14:26;10.60;99.90
18163;DHT22;9206;50.994;4.538;2022-12-07T12:20:28;10.30;99.90
18163;DHT22;9206;50.994;4.538;2022-12-07T12:23:20;11.40;99.90
18163;DHT22;9206;50.994;4.538;2022-12-07T12:26:17;12.90;99.90
18163;DHT22;9206;50.994;4.538;2022-12-07T12:29:06;16.00;99.90
18163;DHT22;9206;50.994;4.538;2022-12-07T12:32:08;17.10;99.90
18163;DHT22;9206;50.994;4.538;2022-12-07T12:35:03;16.50;99.90
18163;DHT22;9206;50.994;4.538;2022-12-07T12:38:28;15.40;99.90
18163;DHT22;9206;50.994;4.538;2022-12-07T12:45:21;14.30;99.90
18163;DHT22;9206;50.994;4.538;2022-12-07T12:48:27;13.10;99.90
18163;DHT22;9206;50.994;4.538;2022-12-07T12:51:37;13.70;99.90
18163;DHT22;9206;50.994;4.538;2022-12-07T12:54:26;14.90;99.90
18163;DHT22;9206;50.994;4.538;2022-12-07T12:57:18;15.50;99.90
18163;DHT22;9206;50.994;4.538;2022-12-07T13:00:16;15.20;99.90
18163;DHT22;9206;50.994;4.538;2022-12-07T13:03:21;14.60;99.90
18163;DHT22;9206;50.994;4.538;2022-12-07T13:06:31;13.10;99.90
18163;DHT22;9206;50.994;4.538;2022-12-07T13:09:22;12.90;99.90
18163;DHT22;9206;50.994;4.538;2022-12-07T13:12:13;11.80;99.90
18163;DHT22;9206;50.994;4.538;2022-12-07T13:15:01;11.00;99.90
18163;DHT22;9206;50.994;4.538;2022-12-07T13:18:03;10.40;99.90
18163;DHT22;9206;50.994;4.538;2022-12-07T13:20:54;9.80;99.90
18163;DHT22;9206;50.994;4.538;2022-12-07T13:23:55;9.40;99.90
18163;DHT22;9206;50.994;4.538;2022-12-07T13:26:43;9.10;99.90
18163;DHT22;9206;50.994;4.538;2022-12-07T13:29:36;8.90;99.90
18163;DHT22;9206;50.994;4.538;2022-12-07T13:32:25;8.80;99.90
18163;DHT22;9206;50.994;4.538;2022-12-07T13:35:30;8.80;99.90
18163;DHT22;9206;50.994;4.538;2022-12-07T13:38:27;9.00;99.90
18163;DHT22;9206;50.994;4.538;2022-12-07T13:41:17;8.90;99.90
18163;DHT22;9206;50.994;4.538;2022-12-07T13:44:09;8.80;99.90
18163;DHT22;9206;50.994;4.538;2022-12-07T13:47:06;8.80;99.90
18163;DHT22;9206;50.994;4.538;2022-12-07T13:49:55;8.70;99.90
18163;DHT22;9206;50.994;4.538;2022-12-07T13:52:44;8.40;99.90
18163;DHT22;9206;50.994;4.538;2022-12-07T13:55:33;8.20;99.90
18163;DHT22;9206;50.994;4.538;2022-12-07T13:58:21;8.00;99.90
18163;DHT22;9206;50.994;4.538;2022-12-07T14:01:09;7.80;99.90
18163;DHT22;9206;50.994;4.538;2022-12-07T14:07:23;7.60;99.90
18163;DHT22;9206;50.994;4.538;2022-12-07T14:10:24;7.40;99.90
18163;DHT22;9206;50.994;4.538;2022-12-07T14:13:29;7.20;99.90
18163;DHT22;9206;50.994;4.538;2022-12-07T14:16:26;6.90;99.90
18163;DHT22;9206;50.994;4.538;2022-12-07T14:19:41;6.80;99.90
18163;DHT22;9206;50.994;4.538;2022-12-07T14:22:31;6.70;99.90
18163;DHT22;9206;50.994;4.538;2022-12-07T14:25:23;6.70;99.90
18163;DHT22;9206;50.994;4.538;2022-12-07T14:28:27;6.60;99.90
18163;DHT22;9206;50.994;4.538;2022-12-07T14:31:20;6.60;99.90
18163;DHT22;9206;50.994;4.538;2022-12-07T14:34:11;6.60;99.90
18163;DHT22;9206;50.994;4.538;2022-12-07T14:36:59;6.60;99.90
18163;DHT22;9206;50.994;4.538;2022-12-07T14:39:49;6.60;99.90
18163;DHT22;9206;50.994;4.538;2022-12-07T14:42:36;6.60;99.90
18163;DHT22;9206;50.994;4.538;2022-12-07T14:45:25;6.60;99.90
18163;DHT22;9206;50.994;4.538;2022-12-07T14:48:14;6.50;99.90
18163;DHT22;9206;50.994;4.538;2022-12-07T14:51:02;6.50;99.90
18163;DHT22;9206;50.994;4.538;2022-12-07T14:53:52;6.40;99.90
18163;DHT22;9206;50.994;4.538;2022-12-07T14:56:40;6.40;99.90
18163;DHT22;9206;50.994;4.538;2022-12-07T14:59:27;6.30;99.90
18163;DHT22;9206;50.994;4.538;2022-12-07T15:02:16;6.20;99.90
18163;DHT22;9206;50.994;4.538;2022-12-07T15:05:04;6.10;99.90
18163;DHT22;9206;50.994;4.538;2022-12-07T15:07:51;6.10;99.90
18163;DHT22;9206;50.994;4.538;2022-12-07T15:10:39;6.00;99.90
18163;DHT22;9206;50.994;4.538;2022-12-07T15:13:26;5.90;99.90
18163;DHT22;9206;50.994;4.538;2022-12-07T15:16:30;5.80;99.90
18163;DHT22;9206;50.994;4.538;2022-12-07T15:19:23;5.80;99.90
18163;DHT22;9206;50.994;4.538;2022-12-07T15:22:11;5.80;99.90
18163;DHT22;9206;50.994;4.538;2022-12-07T15:24:58;5.70;99.90
18163;DHT22;9206;50.994;4.538;2022-12-07T15:27:46;5.70;99.90
18163;DHT22;9206;50.994;4.538;2022-12-07T15:30:33;5.70;99.90
18163;DHT22;9206;50.994;4.538;2022-12-07T15:33:20;5.60;99.90
18163;DHT22;9206;50.994;4.538;2022-12-07T15:36:18;5.60;99.90
18163;DHT22;9206;50.994;4.538;2022-12-07T15:39:07;5.60;99.90
18163;DHT22;9206;50.994;4.538;2022-12-07T15:41:58;5.50;99.90
18163;DHT22;9206;50.994;4.538;2022-12-07T15:44:46;5.50;99.90
18163;DHT22;9206;50.994;4.538;2022-12-07T15:47:52;5.50;99.90
18163;DHT22;9206;50.994;4.538;2022-12-07T15:50:41;5.40;99.90
18163;DHT22;9206;50.994;4.538;2022-12-07T15:53:29;5.40;99.90
18163;DHT22;9206;50.994;4.538;2022-12-07T15:56:16;5.40;99.90
18163;DHT22;9206;50.994;4.538;2022-12-07T15:59:04;5.30;99.90
18163;DHT22;9206;50.994;4.538;2022-12-07T16:01:51;5.40;99.90
18163;DHT22;9206;50.994;4.538;2022-12-07T16:04:38;5.30;99.90
18163;DHT22;9206;50.994;4.538;2022-12-07T16:07:26;5.40;99.90
18163;DHT22;9206;50.994;4.538;2022-12-07T16:10:15;5.40;99.90
18163;DHT22;9206;50.994;4.538;2022-12-07T16:13:03;5.40;99.90
18163;DHT22;9206;50.994;4.538;2022-12-07T16:15:50;5.40;99.90
18163;DHT22;9206;50.994;4.538;2022-12-07T16:18:37;5.40;99.90
18163;DHT22;9206;50.994;4.538;2022-12-07T16:21:25;5.40;99.90
18163;DHT22;9206;50.994;4.538;2022-12-07T16:24:12;5.40;99.90
18163;DHT22;9206;50.994;4.538;2022-12-07T16:27:02;5.30;99.90
18163;DHT22;9206;50.994;4.538;2022-12-07T16:29:49;5.30;99.90
18163;DHT22;9206;50.994;4.538;2022-12-07T16:32:37;5.30;99.90
18163;DHT22;9206;50.994;4.538;2022-12-07T16:35:24;5.30;99.90
18163;DHT22;9206;50.994;4.538;2022-12-07T16:38:11;5.30;99.90
18163;DHT22;9206;50.994;4.538;2022-12-07T16:41:00;5.30;99.90
18163;DHT22;9206;50.994;4.538;2022-12-07T16:43:49;5.30;99.90
18163;DHT22;9206;50.994;4.538;2022-12-07T16:46:36;5.30;99.90
18163;DHT22;9206;50.994;4.538;2022-12-07T16:49:24;5.40;99.90
18163;DHT22;9206;50.994;4.538;2022-12-07T16:52:11;5.40;99.90
18163;DHT22;9206;50.994;4.538;2022-12-07T16:54:58;5.40;99.90
18163;DHT22;9206;50.994;4.538;2022-12-07T16:57:46;5.40;99.90
18163;DHT22;9206;50.994;4.538;2022-12-07T17:00:36;5.40;99.90
18163;DHT22;9206;50.994;4.538;2022-12-07T17:03:23;5.40;99.90
18163;DHT22;9206;50.994;4.538;2022-12-07T17:06:15;5.40;99.90
18163;DHT22;9206;50.994;4.538;2022-12-07T17:09:05;5.30;99.90
18163;DHT22;9206;50.994;4.538;2022-12-07T17:11:55;5.40;99.90
18163;DHT22;9206;50.994;4.538;2022-12-07T17:14:42;5.40;99.90
18163;DHT22;9206;50.994;4.538;2022-12-07T17:17:52;5.30;99.90
18163;DHT22;9206;50.994;4.538;2022-12-07T17:20:40;5.30;99.90
18163;DHT22;9206;50.994;4.538;2022-12-07T17:23:27;5.30;99.90
18163;DHT22;9206;50.994;4.538;2022-12-07T17:26:16;5.20;99.90
18163;DHT22;9206;50.994;4.538;2022-12-07T17:29:05;5.20;99.90
18163;DHT22;9206;50.994;4.538;2022-12-07T17:31:56;5.20;99.90
18163;DHT22;9206;50.994;4.538;2022-12-07T17:34:51;5.30;99.90
18163;DHT22;9206;50.994;4.538;2022-12-07T17:37:39;5.20;99.90
18163;DHT22;9206;50.994;4.538;2022-12-07T17:40:30;5.20;99.90
18163;DHT22;9206;50.994;4.538;2022-12-07T17:43:19;5.20;99.90
18163;DHT22;9206;50.994;4.538;2022-12-07T17:46:08;5.10;99.90
18163;DHT22;9206;50.994;4.538;2022-12-07T17:49:02;5.10;99.90
18163;DHT22;9206;50.994;4.538;2022-12-07T17:51:57;5.10;99.90
18163;DHT22;9206;50.994;4.538;2022-12-07T17:55:04;5.00;99.90
18163;DHT22;9206;50.994;4.538;2022-12-07T17:57:52;4.90;99.90
18163;DHT22;9206;50.994;4.538;2022-12-07T18:00:40;4.90;99.90
18163;DHT22;9206;50.994;4.538;2022-12-07T18:03:28;4.90;99.90
18163;DHT22;9206;50.994;4.538;2022-12-07T18:06:16;4.90;99.90
18163;DHT22;9206;50.994;4.538;2022-12-07T18:09:06;4.80;99.90
18163;DHT22;9206;50.994;4.538;2022-12-07T18:11:59;4.90;99.90
18163;DHT22;9206;50.994;4.538;2022-12-07T18:14:48;4.80;99.90
18163;DHT22;9206;50.994;4.538;2022-12-07T18:17:36;4.80;99.90
18163;DHT22;9206;50.994;4.538;2022-12-07T18:20:24;4.80;99.90
18163;DHT22;9206;50.994;4.538;2022-12-07T18:23:15;4.70;99.90
18163;DHT22;9206;50.994;4.538;2022-12-07T18:26:09;4.70;99.90
18163;DHT22;9206;50.994;4.538;2022-12-07T18:29:05;4.70;99.90
18163;DHT22;9206;50.994;4.538;2022-12-07T18:31:58;4.80;99.90
18163;DHT22;9206;50.994;4.538;2022-12-07T18:34:48;4.80;99.90
18163;DHT22;9206;50.994;4.538;2022-12-07T18:37:35;4.80;99.90
18163;DHT22;9206;50.994;4.538;2022-12-07T18:40:24;4.70;99.90
18163;DHT22;9206;50.994;4.538;2022-12-07T18:43:13;4.70;99.90
18163;DHT22;9206;50.994;4.538;2022-12-07T18:46:01;4.70;99.90
18163;DHT22;9206;50.994;4.538;2022-12-07T18:48:48;4.70;99.90
18163;DHT22;9206;50.994;4.538;2022-12-07T18:51:36;4.70;99.90